sensor_id;sensor_type;location;lat;lon;timestamp;pressure;altitude;pressure_sealevel;temperature;humidity
24752;BME280;27246;52.376;4.628;2024-01-16T00:04:47;100756.06;;;4.78;67.65
24752;BME280;27246;52.376;4.628;2024-01-16T00:09:48;100766.38;;;4.85;68.09
24752;BME280;27246;52.376;4.628;2024-01-16T00:14:54;100761.09;;;4.93;68.36
24752;BME280;27246;52.376;4.628;2024-01-16T00:19:55;100756.78;;;4.80;64.41
24752;BME280;27246;52.376;4.628;2024-01-16T00:25:02;100765.53;;;4.84;60.31
24752;BME280;27246;52.376;4.628;2024-01-16T00:30:04;100757.50;;;4.82;59.90
24752;BME280;27246;52.376;4.628;2024-01-16T00:35:08;100753.66;;;4.95;59.16
24752;BME280;27246;52.376;4.628;2024-01-16T00:40:11;100759.81;;;4.87;60.78
24752;BME280;27246;52.376;4.628;2024-01-16T00:45:12;100768.81;;;4.49;64.40
24752;BME280;27246;52.376;4.628;2024-01-16T00:50:14;100785.19;;;4.18;67.83
24752;BME280;27246;52.376;4.628;2024-01-16T00:55:16;100785.88;;;4.00;74.62
24752;BME280;27246;52.376;4.628;2024-01-16T01:00:18;100793.19;;;4.10;79.11
24752;BME280;27246;52.376;4.628;2024-01-16T01:05:20;100772.78;;;4.25;79.72
24752;BME280;27246;52.376;4.628;2024-01-16T01:10:22;100789.97;;;4.35;79.21
24752;BME280;27246;52.376;4.628;2024-01-16T01:15:24;100790.56;;;4.39;78.03
24752;BME280;27246;52.376;4.628;2024-01-16T01:20:26;100792.28;;;4.40;77.57
24752;BME280;27246;52.376;4.628;2024-01-16T01:25:28;100781.13;;;4.43;76.68
24752;BME280;27246;52.376;4.628;2024-01-16T01:30:30;100778.69;;;4.50;77.01
24752;BME280;27246;52.376;4.628;2024-01-16T01:35:31;100773.53;;;4.47;76.96
24752;BME280;27246;52.376;4.628;2024-01-16T01:40:33;100765.94;;;4.40;77.60
24752;BME280;27246;52.376;4.628;2024-01-16T01:45:35;100767.94;;;4.38;77.41
24752;BME280;27246;52.376;4.628;2024-01-16T01:50:37;100768.44;;;4.13;78.28
24752;BME280;27246;52.376;4.628;2024-01-16T01:55:39;100759.31;;;4.33;76.32
24752;BME280;27246;52.376;4.628;2024-01-16T02:00:42;100773.94;;;4.32;76.07
24752;BME280;27246;52.376;4.628;2024-01-16T02:05:44;100745.84;;;4.32;79.29
24752;BME280;27246;52.376;4.628;2024-01-16T02:10:47;100799.22;;;4.64;78.67
24752;BME280;27246;52.376;4.628;2024-01-16T02:15:51;100793.47;;;4.47;77.66
24752;BME280;27246;52.376;4.628;2024-01-16T02:20:58;100794.22;;;4.09;77.74
24752;BME280;27246;52.376;4.628;2024-01-16T02:26:02;100784.81;;;3.92;81.37
24752;BME280;27246;52.376;4.628;2024-01-16T02:31:04;100769.97;;;3.96;81.98
24752;BME280;27246;52.376;4.628;2024-01-16T02:36:06;100769.69;;;3.99;82.19
24752;BME280;27246;52.376;4.628;2024-01-16T02:41:08;100773.84;;;4.03;82.77
24752;BME280;27246;52.376;4.628;2024-01-16T02:46:10;100767.25;;;4.06;82.70
24752;BME280;27246;52.376;4.628;2024-01-16T02:51:12;100753.38;;;4.09;82.64
24752;BME280;27246;52.376;4.628;2024-01-16T02:56:14;100757.09;;;4.08;83.01
24752;BME280;27246;52.376;4.628;2024-01-16T03:01:16;100755.38;;;4.07;83.13
24752;BME280;27246;52.376;4.628;2024-01-16T03:06:24;100766.41;;;4.05;83.25
24752;BME280;27246;52.376;4.628;2024-01-16T03:11:26;100770.53;;;3.99;83.98
24752;BME280;27246;52.376;4.628;2024-01-16T03:16:31;100758.19;;;3.95;84.36
24752;BME280;27246;52.376;4.628;2024-01-16T03:21:33;100758.88;;;3.88;83.29
24752;BME280;27246;52.376;4.628;2024-01-16T03:26:35;100761.00;;;3.53;84.96
24752;BME280;27246;52.376;4.628;2024-01-16T03:31:37;100747.88;;;3.28;88.31
24752;BME280;27246;52.376;4.628;2024-01-16T03:36:39;100738.91;;;2.95;90.58
24752;BME280;27246;52.376;4.628;2024-01-16T03:41:41;100732.16;;;2.89;92.56
24752;BME280;27246;52.376;4.628;2024-01-16T03:46:43;100732.34;;;3.18;93.59
24752;BME280;27246;52.376;4.628;2024-01-16T03:51:45;100726.75;;;3.41;90.59
24752;BME280;27246;52.376;4.628;2024-01-16T03:56:48;100727.56;;;3.32;87.27
24752;BME280;27246;52.376;4.628;2024-01-16T04:01:50;100737.25;;;3.55;84.66
24752;BME280;27246;52.376;4.628;2024-01-16T04:06:52;100722.75;;;3.66;81.62
24752;BME280;27246;52.376;4.628;2024-01-16T04:11:53;100729.78;;;3.78;79.58
24752;BME280;27246;52.376;4.628;2024-01-16T04:16:55;100729.84;;;3.88;78.21
24752;BME280;27246;52.376;4.628;2024-01-16T04:21:57;100727.28;;;3.96;77.17
24752;BME280;27246;52.376;4.628;2024-01-16T04:26:59;100718.09;;;3.97;77.03
24752;BME280;27246;52.376;4.628;2024-01-16T04:32:01;100706.31;;;3.77;74.95
24752;BME280;27246;52.376;4.628;2024-01-16T04:37:03;100715.66;;;3.85;74.02
24752;BME280;27246;52.376;4.628;2024-01-16T04:42:05;100737.72;;;3.91;74.56
24752;BME280;27246;52.376;4.628;2024-01-16T04:47:06;100743.09;;;3.81;78.18
24752;BME280;27246;52.376;4.628;2024-01-16T04:52:08;100765.72;;;2.88;86.02
24752;BME280;27246;52.376;4.628;2024-01-16T04:57:10;100749.88;;;2.72;90.18
24752;BME280;27246;52.376;4.628;2024-01-16T05:02:12;100730.44;;;3.09;89.69
24752;BME280;27246;52.376;4.628;2024-01-16T05:07:16;100721.53;;;3.28;89.39
24752;BME280;27246;52.376;4.628;2024-01-16T05:12:18;100703.28;;;3.40;88.58
24752;BME280;27246;52.376;4.628;2024-01-16T05:17:20;100707.16;;;3.37;87.79
24752;BME280;27246;52.376;4.628;2024-01-16T05:22:21;100699.88;;;3.17;88.63
24752;BME280;27246;52.376;4.628;2024-01-16T05:27:23;100686.25;;;3.07;88.66
24752;BME280;27246;52.376;4.628;2024-01-16T05:32:25;100688.28;;;2.94;90.32
24752;BME280;27246;52.376;4.628;2024-01-16T05:37:27;100684.56;;;3.16;90.87
24752;BME280;27246;52.376;4.628;2024-01-16T05:42:31;100688.63;;;3.22;90.29
24752;BME280;27246;52.376;4.628;2024-01-16T05:47:33;100694.94;;;3.01;90.93
24752;BME280;27246;52.376;4.628;2024-01-16T05:52:35;100719.69;;;2.66;92.74
24752;BME280;27246;52.376;4.628;2024-01-16T05:57:38;100708.78;;;2.45;95.54
24752;BME280;27246;52.376;4.628;2024-01-16T06:02:39;100710.81;;;2.20;96.56
24752;BME280;27246;52.376;4.628;2024-01-16T06:07:42;100707.34;;;2.29;99.05
24752;BME280;27246;52.376;4.628;2024-01-16T06:12:45;100686.38;;;2.31;98.26
24752;BME280;27246;52.376;4.628;2024-01-16T06:17:47;100692.31;;;2.57;96.95
24752;BME280;27246;52.376;4.628;2024-01-16T06:22:49;100693.00;;;2.71;96.00
24752;BME280;27246;52.376;4.628;2024-01-16T06:27:51;100698.22;;;2.84;93.26
24752;BME280;27246;52.376;4.628;2024-01-16T06:32:53;100678.09;;;2.65;92.04
24752;BME280;27246;52.376;4.628;2024-01-16T06:37:55;100674.25;;;2.89;90.95
24752;BME280;27246;52.376;4.628;2024-01-16T06:42:57;100670.25;;;3.14;89.63
24752;BME280;27246;52.376;4.628;2024-01-16T06:47:59;100660.84;;;3.18;89.40
24752;BME280;27246;52.376;4.628;2024-01-16T06:53:01;100666.47;;;3.26;89.33
24752;BME280;27246;52.376;4.628;2024-01-16T06:58:03;100663.91;;;3.34;88.72
24752;BME280;27246;52.376;4.628;2024-01-16T07:03:05;100683.66;;;3.36;89.41
24752;BME280;27246;52.376;4.628;2024-01-16T07:08:07;100683.06;;;3.33;89.62
24752;BME280;27246;52.376;4.628;2024-01-16T07:13:09;100676.97;;;3.40;91.36
24752;BME280;27246;52.376;4.628;2024-01-16T07:18:11;100683.44;;;3.49;92.52
24752;BME280;27246;52.376;4.628;2024-01-16T07:23:15;100680.41;;;3.43;93.03
24752;BME280;27246;52.376;4.628;2024-01-16T07:28:17;100685.28;;;3.18;90.79
24752;BME280;27246;52.376;4.628;2024-01-16T07:33:19;100689.56;;;2.90;83.85
24752;BME280;27246;52.376;4.628;2024-01-16T07:38:24;100703.72;;;2.72;77.08
24752;BME280;27246;52.376;4.628;2024-01-16T07:43:26;100693.59;;;2.74;75.83
24752;BME280;27246;52.376;4.628;2024-01-16T07:48:28;100701.00;;;2.72;75.14
24752;BME280;27246;52.376;4.628;2024-01-16T07:53:30;100704.44;;;2.74;74.58
24752;BME280;27246;52.376;4.628;2024-01-16T07:58:31;100696.66;;;2.81;74.86
24752;BME280;27246;52.376;4.628;2024-01-16T08:03:33;100698.28;;;2.72;72.59
24752;BME280;27246;52.376;4.628;2024-01-16T08:08:35;100709.69;;;2.87;74.73
24752;BME280;27246;52.376;4.628;2024-01-16T08:13:37;100701.94;;;2.83;74.59
24752;BME280;27246;52.376;4.628;2024-01-16T08:18:39;100705.13;;;2.88;74.10
24752;BME280;27246;52.376;4.628;2024-01-16T08:23:41;100711.28;;;2.90;71.63
24752;BME280;27246;52.376;4.628;2024-01-16T08:28:42;100708.56;;;2.90;70.13
24752;BME280;27246;52.376;4.628;2024-01-16T08:33:45;100709.69;;;2.87;68.38
24752;BME280;27246;52.376;4.628;2024-01-16T08:38:50;100709.19;;;2.93;68.14
24752;BME280;27246;52.376;4.628;2024-01-16T08:43:52;100705.94;;;2.99;67.44
24752;BME280;27246;52.376;4.628;2024-01-16T08:48:54;100706.53;;;3.03;67.66
24752;BME280;27246;52.376;4.628;2024-01-16T08:53:57;100696.63;;;3.02;68.01
24752;BME280;27246;52.376;4.628;2024-01-16T08:58:59;100694.72;;;2.93;65.77
24752;BME280;27246;52.376;4.628;2024-01-16T09:04:00;100701.09;;;3.03;66.14
24752;BME280;27246;52.376;4.628;2024-01-16T09:09:02;100700.94;;;3.05;63.83
24752;BME280;27246;52.376;4.628;2024-01-16T09:14:06;100697.78;;;2.99;63.21
24752;BME280;27246;52.376;4.628;2024-01-16T09:19:08;100695.13;;;3.09;64.06
24752;BME280;27246;52.376;4.628;2024-01-16T09:24:11;100695.03;;;3.20;64.23
24752;BME280;27246;52.376;4.628;2024-01-16T09:29:14;100691.19;;;3.23;65.29
24752;BME280;27246;52.376;4.628;2024-01-16T09:34:17;100680.72;;;3.18;64.92
24752;BME280;27246;52.376;4.628;2024-01-16T09:39:19;100699.47;;;3.22;63.07
24752;BME280;27246;52.376;4.628;2024-01-16T09:44:20;100689.91;;;3.27;62.24
24752;BME280;27246;52.376;4.628;2024-01-16T09:49:23;100687.88;;;3.19;61.36
24752;BME280;27246;52.376;4.628;2024-01-16T09:54:25;100675.16;;;3.20;62.09
24752;BME280;27246;52.376;4.628;2024-01-16T09:59:29;100677.75;;;3.22;63.33
24752;BME280;27246;52.376;4.628;2024-01-16T10:04:32;100678.78;;;3.30;60.39
24752;BME280;27246;52.376;4.628;2024-01-16T10:09:35;100691.78;;;3.27;58.71
24752;BME280;27246;52.376;4.628;2024-01-16T10:14:38;100693.38;;;3.29;58.31
24752;BME280;27246;52.376;4.628;2024-01-16T10:19:52;100682.09;;;3.34;58.06
24752;BME280;27246;52.376;4.628;2024-01-16T10:25:08;100673.59;;;3.27;58.73
24752;BME280;27246;52.376;4.628;2024-01-16T10:30:12;100672.38;;;3.31;60.16
24752;BME280;27246;52.376;4.628;2024-01-16T10:35:14;100673.69;;;3.47;60.44
24752;BME280;27246;52.376;4.628;2024-01-16T10:40:17;100664.16;;;3.52;60.24
24752;BME280;27246;52.376;4.628;2024-01-16T10:45:23;100663.72;;;3.57;59.52
24752;BME280;27246;52.376;4.628;2024-01-16T10:50:25;100664.88;;;3.54;58.58
24752;BME280;27246;52.376;4.628;2024-01-16T10:55:28;100660.94;;;3.37;57.47
24752;BME280;27246;52.376;4.628;2024-01-16T11:00:33;100659.13;;;3.48;58.17
24752;BME280;27246;52.376;4.628;2024-01-16T11:05:39;100647.66;;;3.44;56.93
24752;BME280;27246;52.376;4.628;2024-01-16T11:10:41;100641.88;;;3.68;59.06
24752;BME280;27246;52.376;4.628;2024-01-16T11:15:45;100630.69;;;3.62;58.52
24752;BME280;27246;52.376;4.628;2024-01-16T11:20:49;100629.72;;;3.72;58.84
24752;BME280;27246;52.376;4.628;2024-01-16T11:26:37;100639.41;;;3.65;57.78
24752;BME280;27246;52.376;4.628;2024-01-16T11:31:44;100635.78;;;3.45;59.09
24752;BME280;27246;52.376;4.628;2024-01-16T11:36:51;100635.69;;;3.56;56.90
24752;BME280;27246;52.376;4.628;2024-01-16T11:41:58;100631.09;;;3.57;56.92
24752;BME280;27246;52.376;4.628;2024-01-16T11:47:01;100620.63;;;3.52;58.29
24752;BME280;27246;52.376;4.628;2024-01-16T11:52:04;100608.69;;;3.84;59.34
24752;BME280;27246;52.376;4.628;2024-01-16T11:57:17;100604.22;;;3.73;57.86
24752;BME280;27246;52.376;4.628;2024-01-16T12:07:47;100602.38;;;3.74;58.62
24752;BME280;27246;52.376;4.628;2024-01-16T12:12:58;100602.81;;;3.79;57.61
24752;BME280;27246;52.376;4.628;2024-01-16T12:18:05;100596.09;;;3.93;57.46
24752;BME280;27246;52.376;4.628;2024-01-16T12:23:14;100592.53;;;3.92;57.05
24752;BME280;27246;52.376;4.628;2024-01-16T12:28:15;100595.22;;;3.73;56.41
24752;BME280;27246;52.376;4.628;2024-01-16T12:33:33;100587.94;;;3.83;55.31
24752;BME280;27246;52.376;4.628;2024-01-16T12:38:35;100588.22;;;3.99;55.53
24752;BME280;27246;52.376;4.628;2024-01-16T12:43:38;100586.53;;;3.98;56.17
24752;BME280;27246;52.376;4.628;2024-01-16T12:48:40;100589.50;;;3.95;55.61
24752;BME280;27246;52.376;4.628;2024-01-16T12:54:14;100573.91;;;3.97;54.67
24752;BME280;27246;52.376;4.628;2024-01-16T12:59:17;100562.19;;;4.07;56.10
24752;BME280;27246;52.376;4.628;2024-01-16T13:04:19;100561.56;;;3.84;55.84
24752;BME280;27246;52.376;4.628;2024-01-16T13:09:22;100562.88;;;3.89;56.67
24752;BME280;27246;52.376;4.628;2024-01-16T13:14:24;100560.31;;;3.97;56.37
24752;BME280;27246;52.376;4.628;2024-01-16T13:19:26;100554.88;;;4.07;56.20
24752;BME280;27246;52.376;4.628;2024-01-16T13:24:30;100546.84;;;3.86;55.65
24752;BME280;27246;52.376;4.628;2024-01-16T13:29:32;100534.09;;;3.96;57.30
24752;BME280;27246;52.376;4.628;2024-01-16T13:34:38;100533.81;;;3.99;58.09
24752;BME280;27246;52.376;4.628;2024-01-16T13:39:40;100515.63;;;3.90;57.88
24752;BME280;27246;52.376;4.628;2024-01-16T13:44:42;100519.09;;;4.02;58.52
24752;BME280;27246;52.376;4.628;2024-01-16T13:49:45;100521.50;;;3.76;56.96
24752;BME280;27246;52.376;4.628;2024-01-16T13:54:47;100506.78;;;3.98;57.17
24752;BME280;27246;52.376;4.628;2024-01-16T13:59:49;100504.31;;;4.05;56.46
24752;BME280;27246;52.376;4.628;2024-01-16T14:04:53;100502.44;;;4.15;56.75
24752;BME280;27246;52.376;4.628;2024-01-16T14:09:56;100493.97;;;4.18;56.91
24752;BME280;27246;52.376;4.628;2024-01-16T14:14:57;100487.84;;;4.06;56.26
24752;BME280;27246;52.376;4.628;2024-01-16T14:19:59;100482.94;;;4.10;56.88
24752;BME280;27246;52.376;4.628;2024-01-16T14:25:01;100481.41;;;3.97;57.00
24752;BME280;27246;52.376;4.628;2024-01-16T14:30:03;100475.69;;;3.91;56.80
24752;BME280;27246;52.376;4.628;2024-01-16T14:35:06;100464.66;;;3.92;57.10
24752;BME280;27246;52.376;4.628;2024-01-16T14:40:10;100456.50;;;3.92;57.57
24752;BME280;27246;52.376;4.628;2024-01-16T14:45:14;100463.06;;;3.99;57.38
24752;BME280;27246;52.376;4.628;2024-01-16T14:50:17;100458.50;;;4.00;57.45
24752;BME280;27246;52.376;4.628;2024-01-16T14:55:19;100452.63;;;4.05;57.72
24752;BME280;27246;52.376;4.628;2024-01-16T15:00:22;100446.88;;;4.08;58.70
24752;BME280;27246;52.376;4.628;2024-01-16T15:05:28;100444.13;;;4.17;58.89
24752;BME280;27246;52.376;4.628;2024-01-16T15:10:30;100436.69;;;4.10;58.78
24752;BME280;27246;52.376;4.628;2024-01-16T15:15:32;100434.84;;;4.10;58.24
24752;BME280;27246;52.376;4.628;2024-01-16T15:20:34;100435.56;;;4.03;58.73
24752;BME280;27246;52.376;4.628;2024-01-16T15:25:36;100429.56;;;3.99;58.23
24752;BME280;27246;52.376;4.628;2024-01-16T15:30:38;100425.69;;;4.01;58.66
24752;BME280;27246;52.376;4.628;2024-01-16T15:35:40;100430.25;;;4.11;59.36
24752;BME280;27246;52.376;4.628;2024-01-16T15:40:42;100425.81;;;4.10;59.77
24752;BME280;27246;52.376;4.628;2024-01-16T15:45:44;100428.72;;;3.89;59.62
24752;BME280;27246;52.376;4.628;2024-01-16T15:50:46;100428.28;;;3.93;59.48
24752;BME280;27246;52.376;4.628;2024-01-16T15:55:48;100421.00;;;3.84;59.70
24752;BME280;27246;52.376;4.628;2024-01-16T16:00:50;100425.44;;;3.85;59.99
24752;BME280;27246;52.376;4.628;2024-01-16T16:05:52;100417.56;;;3.82;60.74
24752;BME280;27246;52.376;4.628;2024-01-16T16:10:55;100419.28;;;3.83;60.78
24752;BME280;27246;52.376;4.628;2024-01-16T16:15:58;100410.00;;;3.76;60.73
24752;BME280;27246;52.376;4.628;2024-01-16T16:21:00;100407.56;;;3.73;60.82
24752;BME280;27246;52.376;4.628;2024-01-16T16:26:03;100413.56;;;3.67;61.12
24752;BME280;27246;52.376;4.628;2024-01-16T16:31:06;100419.16;;;3.65;61.13
24752;BME280;27246;52.376;4.628;2024-01-16T16:36:08;100413.44;;;3.68;62.26
24752;BME280;27246;52.376;4.628;2024-01-16T16:41:10;100395.38;;;3.67;62.21
24752;BME280;27246;52.376;4.628;2024-01-16T16:46:16;100396.69;;;3.73;62.48
24752;BME280;27246;52.376;4.628;2024-01-16T16:51:19;100400.09;;;3.75;63.24
24752;BME280;27246;52.376;4.628;2024-01-16T16:56:23;100380.09;;;3.76;63.37
24752;BME280;27246;52.376;4.628;2024-01-16T17:01:25;100375.78;;;3.73;64.33
24752;BME280;27246;52.376;4.628;2024-01-16T17:06:26;100384.81;;;3.74;64.92
24752;BME280;27246;52.376;4.628;2024-01-16T17:11:28;100383.50;;;3.78;65.57
24752;BME280;27246;52.376;4.628;2024-01-16T17:16:32;100371.34;;;3.72;65.91
24752;BME280;27246;52.376;4.628;2024-01-16T17:21:34;100366.63;;;3.74;65.96
24752;BME280;27246;52.376;4.628;2024-01-16T17:26:38;100355.59;;;3.76;65.53
24752;BME280;27246;52.376;4.628;2024-01-16T17:31:41;100342.41;;;3.81;65.94
24752;BME280;27246;52.376;4.628;2024-01-16T17:36:43;100341.41;;;3.82;66.34
24752;BME280;27246;52.376;4.628;2024-01-16T17:41:47;100335.38;;;3.88;67.37
24752;BME280;27246;52.376;4.628;2024-01-16T17:46:49;100334.38;;;3.89;67.56
24752;BME280;27246;52.376;4.628;2024-01-16T17:51:54;100331.66;;;3.89;68.41
24752;BME280;27246;52.376;4.628;2024-01-16T17:56:56;100324.06;;;3.93;68.99
24752;BME280;27246;52.376;4.628;2024-01-16T18:01:58;100324.28;;;3.72;68.58
24752;BME280;27246;52.376;4.628;2024-01-16T18:07:06;100319.72;;;3.43;69.32
24752;BME280;27246;52.376;4.628;2024-01-16T18:12:08;100328.88;;;3.52;69.87
24752;BME280;27246;52.376;4.628;2024-01-16T18:17:12;100318.72;;;3.54;70.30
24752;BME280;27246;52.376;4.628;2024-01-16T18:22:14;100314.59;;;3.40;70.98
24752;BME280;27246;52.376;4.628;2024-01-16T18:27:17;100298.72;;;3.35;72.30
24752;BME280;27246;52.376;4.628;2024-01-16T18:32:19;100290.13;;;3.40;73.44
24752;BME280;27246;52.376;4.628;2024-01-16T18:37:21;100276.81;;;3.37;73.89
24752;BME280;27246;52.376;4.628;2024-01-16T18:42:23;100275.69;;;3.30;74.41
24752;BME280;27246;52.376;4.628;2024-01-16T18:47:25;100278.56;;;3.28;75.04
24752;BME280;27246;52.376;4.628;2024-01-16T18:52:27;100257.84;;;3.17;75.58
24752;BME280;27246;52.376;4.628;2024-01-16T18:57:29;100265.28;;;3.15;75.14
24752;BME280;27246;52.376;4.628;2024-01-16T19:02:32;100259.56;;;3.09;75.49
24752;BME280;27246;52.376;4.628;2024-01-16T19:07:34;100257.00;;;3.07;74.30
24752;BME280;27246;52.376;4.628;2024-01-16T19:12:36;100255.00;;;3.09;74.03
24752;BME280;27246;52.376;4.628;2024-01-16T19:17:38;100264.31;;;2.97;73.34
24752;BME280;27246;52.376;4.628;2024-01-16T19:22:42;100264.88;;;2.81;73.36
24752;BME280;27246;52.376;4.628;2024-01-16T19:27:44;100254.72;;;2.73;73.66
24752;BME280;27246;52.376;4.628;2024-01-16T19:32:49;100254.59;;;2.75;73.21
24752;BME280;27246;52.376;4.628;2024-01-16T19:37:51;100256.84;;;2.60;73.41
24752;BME280;27246;52.376;4.628;2024-01-16T19:42:53;100260.84;;;2.56;73.24
24752;BME280;27246;52.376;4.628;2024-01-16T19:47:56;100259.13;;;2.55;72.80
24752;BME280;27246;52.376;4.628;2024-01-16T19:52:57;100258.00;;;2.57;72.35
24752;BME280;27246;52.376;4.628;2024-01-16T19:58:04;100262.56;;;2.57;71.06
24752;BME280;27246;52.376;4.628;2024-01-16T20:03:06;100249.97;;;2.46;70.14
24752;BME280;27246;52.376;4.628;2024-01-16T20:08:09;100236.56;;;2.45;69.21
24752;BME280;27246;52.376;4.628;2024-01-16T20:13:14;100223.53;;;2.48;68.48
24752;BME280;27246;52.376;4.628;2024-01-16T20:18:16;100217.97;;;2.40;68.40
24752;BME280;27246;52.376;4.628;2024-01-16T20:23:18;100213.69;;;2.37;67.08
24752;BME280;27246;52.376;4.628;2024-01-16T20:28:19;100219.97;;;2.38;66.76
24752;BME280;27246;52.376;4.628;2024-01-16T20:33:21;100228.38;;;2.25;65.47
24752;BME280;27246;52.376;4.628;2024-01-16T20:38:23;100221.50;;;2.21;66.09
24752;BME280;27246;52.376;4.628;2024-01-16T20:43:25;100217.06;;;2.20;65.70
24752;BME280;27246;52.376;4.628;2024-01-16T20:48:27;100218.50;;;2.14;65.41
24752;BME280;27246;52.376;4.628;2024-01-16T20:53:30;100209.63;;;2.03;65.17
24752;BME280;27246;52.376;4.628;2024-01-16T20:58:32;100188.66;;;2.05;64.16
24752;BME280;27246;52.376;4.628;2024-01-16T21:03:34;100181.06;;;1.98;64.82
24752;BME280;27246;52.376;4.628;2024-01-16T21:08:35;100181.03;;;1.89;64.91
24752;BME280;27246;52.376;4.628;2024-01-16T21:13:37;100176.59;;;1.88;65.42
24752;BME280;27246;52.376;4.628;2024-01-16T21:18:39;100174.47;;;1.91;64.97
24752;BME280;27246;52.376;4.628;2024-01-16T21:23:45;100160.94;;;1.91;65.09
24752;BME280;27246;52.376;4.628;2024-01-16T21:28:47;100147.34;;;1.72;64.99
24752;BME280;27246;52.376;4.628;2024-01-16T21:33:49;100135.34;;;1.74;66.32
24752;BME280;27246;52.376;4.628;2024-01-16T21:38:51;100135.06;;;1.68;66.02
24752;BME280;27246;52.376;4.628;2024-01-16T21:43:53;100126.38;;;1.74;66.39
24752;BME280;27246;52.376;4.628;2024-01-16T21:48:54;100118.50;;;1.71;66.76
24752;BME280;27246;52.376;4.628;2024-01-16T21:53:56;100104.25;;;1.69;67.66
24752;BME280;27246;52.376;4.628;2024-01-16T21:58:58;100099.13;;;1.66;67.65
24752;BME280;27246;52.376;4.628;2024-01-16T22:04:00;100088.81;;;1.59;68.27
24752;BME280;27246;52.376;4.628;2024-01-16T22:09:02;100081.56;;;1.60;67.71
24752;BME280;27246;52.376;4.628;2024-01-16T22:14:05;100072.56;;;1.69;68.21
24752;BME280;27246;52.376;4.628;2024-01-16T22:19:12;100061.16;;;1.75;67.79
24752;BME280;27246;52.376;4.628;2024-01-16T22:24:14;100055.88;;;1.84;68.00
24752;BME280;27246;52.376;4.628;2024-01-16T22:29:15;100048.03;;;1.71;67.93
24752;BME280;27246;52.376;4.628;2024-01-16T22:34:17;100034.94;;;1.76;68.61
24752;BME280;27246;52.376;4.628;2024-01-16T22:39:19;100022.94;;;1.69;68.73
24752;BME280;27246;52.376;4.628;2024-01-16T22:44:25;100022.94;;;1.69;68.99
24752;BME280;27246;52.376;4.628;2024-01-16T22:49:28;100028.94;;;1.72;69.21
24752;BME280;27246;52.376;4.628;2024-01-16T22:54:30;100010.09;;;1.71;70.17
24752;BME280;27246;52.376;4.628;2024-01-16T22:59:31;100009.38;;;1.69;69.59
24752;BME280;27246;52.376;4.628;2024-01-16T23:04:33;100000.09;;;1.71;70.28
24752;BME280;27246;52.376;4.628;2024-01-16T23:09:37;99992.41;;;1.67;71.04
24752;BME280;27246;52.376;4.628;2024-01-16T23:14:39;99993.69;;;1.63;71.22
24752;BME280;27246;52.376;4.628;2024-01-16T23:19:41;99981.56;;;1.67;72.04
24752;BME280;27246;52.376;4.628;2024-01-16T23:24:43;99962.72;;;1.75;71.97
24752;BME280;27246;52.376;4.628;2024-01-16T23:29:44;99950.19;;;1.74;72.27
24752;BME280;27246;52.376;4.628;2024-01-16T23:34:46;99958.91;;;1.68;72.30
24752;BME280;27246;52.376;4.628;2024-01-16T23:39:48;99951.75;;;1.67;72.70
24752;BME280;27246;52.376;4.628;2024-01-16T23:44:50;99953.91;;;1.44;72.53
24752;BME280;27246;52.376;4.628;2024-01-16T23:49:53;99945.47;;;1.37;73.82
24752;BME280;27246;52.376;4.628;2024-01-16T23:54:55;99937.06;;;1.40;74.13
24752;BME280;27246;52.376;4.628;2024-01-16T23:59:57;99924.78;;;1.55;73.88
